Time,TemperatureF,DewpointF,PressureIn,WindDirection,WindDirectionDegrees,WindSpeedMPH,WindSpeedGustMPH,Humidity,HourlyPrecipIn,Conditions,Clouds,dailyrainin,SoftwareType,DateUTC
2013-01-05 00:01:00,38.3,37.8,30.12,ESE,112,0.0,0.0,98,0.00,,,0.00,WUHU21623XXSP,2013-01-05 08:01:00,
2013-01-05 00:06:00,38.3,37.6,30.12,ESE,112,0.0,0.0,98,0.00,,,0.00,WUHU21623XXSP,2013-01-05 08:06:00,
2013-01-05 00:11:00,38.1,37.6,30.12,ESE,112,0.0,0.0,98,0.00,,,0.00,WUHU21623XXSP,2013-01-05 08:11:00,
2013-01-05 00:16:00,38.1,37.6,30.12,ESE,112,0.0,0.0,98,0.00,,,0.00,WUHU21623XXSP,2013-01-05 08:16:00,
2013-01-05 00:21:00,38.1,37.6,30.12,ESE,112,0.0,0.0,98,0.00,,,0.00,WUHU21623XXSP,2013-01-05 08:21:00,
2013-01-05 00:26:00,38.1,37.6,30.11,ESE,112,0.0,0.0,98,0.00,,,0.00,WUHU21623XXSP,2013-01-05 08:26:00,
2013-01-05 00:31:00,38.1,37.6,30.11,ESE,112,0.0,0.0,98,0.00,,,0.00,WUHU21623XXSP,2013-01-05 08:31:00,
2013-01-05 00:36:00,38.1,37.6,30.11,ESE,112,0.0,0.0,98,0.00,,,0.00,WUHU21623XXSP,2013-01-05 08:36:00,
2013-01-05 00:41:00,38.1,37.6,30.11,ESE,112,0.0,0.0,98,0.00,,,0.00,WUHU21623XXSP,2013-01-05 08:41:00,
2013-01-05 00:46:00,38.1,37.6,30.11,ESE,112,0.0,0.0,98,0.00,,,0.00,WUHU21623XXSP,2013-01-05 08:46:00,
2013-01-05 00:51:00,38.1,37.6,30.11,ESE,112,0.0,0.0,98,0.00,,,0.00,WUHU21623XXSP,2013-01-05 08:51:00,
2013-01-05 00:56:00,38.1,37.6,30.11,ESE,112,0.0,0.0,98,0.00,,,0.00,WUHU21623XXSP,2013-01-05 08:56:00,
2013-01-05 01:01:00,38.1,37.6,30.10,ESE,112,0.0,0.0,98,0.00,,,0.00,WUHU21623XXSP,2013-01-05 09:01:00,
2013-01-05 01:06:00,37.9,37.4,30.10,ESE,112,0.0,0.0,98,0.00,,,0.00,WUHU21623XXSP,2013-01-05 09:06:00,
2013-01-05 01:11:00,37.9,37.4,30.11,ESE,112,0.0,0.0,98,0.00,,,0.00,WUHU21623XXSP,2013-01-05 09:11:00,
2013-01-05 01:16:00,37.9,37.4,30.11,ESE,112,0.0,0.0,98,0.00,,,0.00,WUHU21623XXSP,2013-01-05 09:16:00,
2013-01-05 01:21:00,38.1,37.6,30.11,ESE,112,0.0,0.0,98,0.00,,,0.00,WUHU21623XXSP,2013-01-05 09:21:00,
2013-01-05 01:26:00,37.9,37.4,30.11,ESE,112,0.0,0.0,98,0.00,,,0.00,WUHU21623XXSP,2013-01-05 09:26:00,
2013-01-05 01:31:00,37.9,37.4,30.11,ESE,112,0.0,0.0,98,0.00,,,0.00,WUHU21623XXSP,2013-01-05 09:31:00,
2013-01-05 01:36:00,37.9,37.4,30.10,ESE,112,0.0,0.0,98,0.00,,,0.00,WUHU21623XXSP,2013-01-05 09:36:00,
2013-01-05 01:41:00,37.9,37.4,30.10,ESE,112,0.0,0.0,98,0.00,,,0.00,WUHU21623XXSP,2013-01-05 09:41:00,
2013-01-05 01:46:00,37.9,37.4,30.10,East,90,0.0,0.0,98,0.00,,,0.00,WUHU21623XXSP,2013-01-05 09:46:00,
2013-01-05 01:51:00,37.9,37.4,30.10,East,90,0.0,0.0,98,0.00,,,0.00,WUHU21623XXSP,2013-01-05 09:51:00,
2013-01-05 01:56:00,37.8,37.2,30.10,East,90,0.0,0.0,98,0.00,,,0.00,WUHU21623XXSP,2013-01-05 09:56:00,
2013-01-05 02:01:00,37.8,37.2,30.10,East,90,0.0,0.0,98,0.00,,,0.00,WUHU21623XXSP,2013-01-05 10:01:00,
2013-01-05 02:06:00,37.8,37.2,30.11,East,90,0.0,0.0,98,0.00,,,0.00,WUHU21623XXSP,2013-01-05 10:06:00,
2013-01-05 02:11:00,37.9,37.2,30.11,East,90,0.0,0.0,98,0.00,,,0.00,WUHU21623XXSP,2013-01-05 10:11:00,
2013-01-05 02:16:00,37.8,37.2,30.11,East,90,0.0,0.0,98,0.00,,,0.00,WUHU21623XXSP,2013-01-05 10:16:00,
2013-01-05 02:21:00,37.8,37.2,30.11,East,90,0.0,0.0,98,0.00,,,0.00,WUHU21623XXSP,2013-01-05 10:21:00,
2013-01-05 02:26:00,37.9,37.4,30.11,East,90,0.0,0.0,98,0.00,,,0.00,WUHU21623XXSP,2013-01-05 10:26:00,
2013-01-05 02:31:00,37.9,37.4,30.12,East,90,0.0,0.0,98,0.00,,,0.00,WUHU21623XXSP,2013-01-05 10:31:00,
2013-01-05 02:36:00,37.9,37.4,30.12,East,90,0.0,0.0,98,0.00,,,0.00,WUHU21623XXSP,2013-01-05 10:36:00,
2013-01-05 02:41:00,37.9,37.4,30.12,East,90,0.0,0.0,98,0.00,,,0.00,WUHU21623XXSP,2013-01-05 10:41:00,
2013-01-05 02:46:00,37.9,37.4,30.12,East,90,0.0,0.0,98,0.00,,,0.00,WUHU21623XXSP,2013-01-05 10:46:00,
2013-01-05 02:51:00,37.9,37.4,30.12,East,90,0.0,0.0,98,0.00,,,0.00,WUHU21623XXSP,2013-01-05 10:51:00,
2013-01-05 02:56:00,38.1,37.6,30.12,East,90,0.0,0.0,98,0.00,,,0.00,WUHU21623XXSP,2013-01-05 10:56:00,
2013-01-05 03:01:00,37.9,37.6,30.12,East,90,0.0,0.0,98,0.00,,,0.00,WUHU21623XXSP,2013-01-05 11:01:00,
2013-01-05 03:06:00,38.1,37.6,30.12,East,90,0.0,0.0,98,0.00,,,0.00,WUHU21623XXSP,2013-01-05 11:06:00,
2013-01-05 03:11:00,37.9,37.4,30.12,East,90,0.0,0.0,98,0.00,,,0.00,WUHU21623XXSP,2013-01-05 11:11:00,
2013-01-05 03:16:00,38.1,37.6,30.13,East,90,0.0,0.0,98,0.00,,,0.00,WUHU21623XXSP,2013-01-05 11:16:00,
2013-01-05 03:21:00,38.1,37.6,30.13,East,90,0.0,0.0,98,0.00,,,0.00,WUHU21623XXSP,2013-01-05 11:21:00,
2013-01-05 03:26:00,38.1,37.6,30.13,ENE,67,0.0,0.0,98,0.00,,,0.00,WUHU21623XXSP,2013-01-05 11:26:00,
2013-01-05 03:31:00,37.9,37.4,30.12,ENE,67,0.0,0.0,98,0.00,,,0.00,WUHU21623XXSP,2013-01-05 11:31:00,
2013-01-05 03:36:00,37.9,37.4,30.13,ENE,67,0.0,0.0,98,0.00,,,0.00,WUHU21623XXSP,2013-01-05 11:36:00,
2013-01-05 03:41:00,37.9,37.4,30.13,ENE,67,0.0,0.0,98,0.00,,,0.00,WUHU21623XXSP,2013-01-05 11:41:00,
2013-01-05 03:46:00,37.9,37.4,30.12,ENE,67,0.0,0.0,98,0.00,,,0.00,WUHU21623XXSP,2013-01-05 11:46:00,
2013-01-05 03:51:00,37.9,37.4,30.12,North,0,0.0,0.0,98,0.00,,,0.00,WUHU21623XXSP,2013-01-05 11:51:00,
2013-01-05 03:56:00,37.8,37.4,30.12,ENE,67,0.0,0.0,98,0.00,,,0.00,WUHU21623XXSP,2013-01-05 11:56:00,
2013-01-05 04:01:00,37.8,37.2,30.12,ENE,67,0.0,0.0,98,0.00,,,0.00,WUHU21623XXSP,2013-01-05 12:01:00,
2013-01-05 04:06:00,37.6,37.0,30.12,NE,45,0.0,0.0,98,0.00,,,0.00,WUHU21623XXSP,2013-01-05 12:06:00,
2013-01-05 04:11:00,37.4,36.9,30.12,NE,45,0.0,0.0,98,0.00,,,0.00,WUHU21623XXSP,2013-01-05 12:11:00,
2013-01-05 04:16:00,37.4,36.9,30.12,ENE,67,0.0,0.0,98,0.00,,,0.00,WUHU21623XXSP,2013-01-05 12:16:00,
2013-01-05 04:21:00,37.4,36.9,30.12,ENE,67,0.0,0.0,98,0.00,,,0.00,WUHU21623XXSP,2013-01-05 12:21:00,
2013-01-05 04:26:00,37.4,37.0,30.12,NNE,22,0.0,0.0,98,0.00,,,0.00,WUHU21623XXSP,2013-01-05 12:26:00,
2013-01-05 04:31:00,37.6,37.0,30.12,NNE,22,0.0,0.0,98,0.00,,,0.00,WUHU21623XXSP,2013-01-05 12:31:00,
2013-01-05 04:36:00,37.6,37.0,30.12,NNE,22,0.0,0.0,98,0.00,,,0.00,WUHU21623XXSP,2013-01-05 12:36:00,
2013-01-05 04:41:00,37.4,36.9,30.11,NNE,22,0.0,0.0,98,0.00,,,0.00,WUHU21623XXSP,2013-01-05 12:41:00,
2013-01-05 04:46:00,37.4,36.9,30.12,NNE,22,0.0,0.0,98,0.00,,,0.00,WUHU21623XXSP,2013-01-05 12:46:00,
2013-01-05 04:51:00,37.4,36.9,30.11,NNE,22,0.0,0.0,98,0.00,,,0.00,WUHU21623XXSP,2013-01-05 12:51:00,
2013-01-05 04:56:00,37.4,36.9,30.11,NNE,22,0.0,0.0,98,0.00,,,0.00,WUHU21623XXSP,2013-01-05 12:56:00,
2013-01-05 05:01:00,37.4,36.9,30.11,NNE,22,0.0,0.0,98,0.00,,,0.00,WUHU21623XXSP,2013-01-05 13:01:00,
2013-01-05 05:06:00,37.6,37.0,30.10,NNE,22,0.0,0.0,98,0.00,,,0.00,WUHU21623XXSP,2013-01-05 13:06:00,
2013-01-05 05:11:00,37.6,37.0,30.11,NNE,22,0.0,0.0,98,0.00,,,0.00,WUHU21623XXSP,2013-01-05 13:11:00,
2013-01-05 05:16:00,37.6,37.0,30.11,NNE,22,0.0,0.0,98,0.00,,,0.00,WUHU21623XXSP,2013-01-05 13:16:00,
2013-01-05 05:21:00,37.6,37.0,30.11,NNE,22,0.0,0.0,98,0.00,,,0.00,WUHU21623XXSP,2013-01-05 13:21:00,
2013-01-05 05:26:00,37.6,37.0,30.11,NNE,22,0.0,0.0,98,0.00,,,0.00,WUHU21623XXSP,2013-01-05 13:26:00,
2013-01-05 05:31:00,37.6,37.0,30.11,NNE,22,0.0,0.0,98,0.00,,,0.00,WUHU21623XXSP,2013-01-05 13:31:00,
2013-01-05 05:36:00,37.6,37.0,30.11,NNE,22,0.0,0.0,98,0.00,,,0.00,WUHU21623XXSP,2013-01-05 13:36:00,
2013-01-05 05:41:00,37.6,37.0,30.11,NNE,22,0.0,0.0,98,0.00,,,0.00,WUHU21623XXSP,2013-01-05 13:41:00,
2013-01-05 05:46:00,37.6,37.0,30.11,NNE,22,0.0,0.0,98,0.00,,,0.00,WUHU21623XXSP,2013-01-05 13:46:00,
2013-01-05 05:51:00,37.6,37.0,30.11,NNE,22,0.0,0.0,98,0.00,,,0.00,WUHU21623XXSP,2013-01-05 13:51:00,
2013-01-05 05:56:00,37.6,37.0,30.11,NNE,22,0.0,0.0,98,0.00,,,0.00,WUHU21623XXSP,2013-01-05 13:56:00,
2013-01-05 06:01:00,37.4,36.9,30.11,NNE,22,0.0,0.0,98,0.00,,,0.00,WUHU21623XXSP,2013-01-05 14:01:00,
2013-01-05 06:06:00,37.6,37.0,30.11,NNE,22,0.0,0.0,98,0.00,,,0.00,WUHU21623XXSP,2013-01-05 14:06:00,
2013-01-05 06:11:00,37.4,36.9,30.12,NNE,22,0.0,0.0,98,0.00,,,0.00,WUHU21623XXSP,2013-01-05 14:11:00,
2013-01-05 06:16:00,37.6,37.0,30.12,NNE,22,0.0,0.0,98,0.00,,,0.00,WUHU21623XXSP,2013-01-05 14:16:00,
2013-01-05 06:21:00,37.6,37.0,30.12,NNE,22,0.0,0.0,98,0.00,,,0.00,WUHU21623XXSP,2013-01-05 14:21:00,
2013-01-05 06:26:00,37.6,37.0,30.12,NNE,22,0.0,0.0,98,0.00,,,0.00,WUHU21623XXSP,2013-01-05 14:26:00,
2013-01-05 06:31:00,37.6,37.0,30.12,NNE,22,0.0,0.0,98,0.00,,,0.00,WUHU21623XXSP,2013-01-05 14:31:00,
2013-01-05 06:36:00,37.6,37.0,30.12,NNE,22,0.0,0.0,98,0.00,,,0.00,WUHU21623XXSP,2013-01-05 14:36:00,
2013-01-05 06:41:00,37.4,37.0,30.12,NNE,22,0.0,0.0,98,0.00,,,0.00,WUHU21623XXSP,2013-01-05 14:41:00,
2013-01-05 06:46:00,37.6,37.0,30.12,NNE,22,0.0,0.0,98,0.00,,,0.00,WUHU21623XXSP,2013-01-05 14:46:00,
2013-01-05 06:51:00,37.6,37.0,30.12,NNE,22,0.0,0.0,98,0.00,,,0.00,WUHU21623XXSP,2013-01-05 14:51:00,
2013-01-05 06:56:00,37.4,37.0,30.12,NNE,22,0.0,0.0,98,0.00,,,0.00,WUHU21623XXSP,2013-01-05 14:56:00,
2013-01-05 07:01:00,37.6,37.0,30.12,NNE,22,0.0,0.0,98,0.00,,,0.00,WUHU21623XXSP,2013-01-05 15:01:00,
2013-01-05 07:06:00,37.6,37.0,30.12,NE,45,0.0,0.0,98,0.00,,,0.00,WUHU21623XXSP,2013-01-05 15:06:00,
2013-01-05 07:11:00,37.6,36.9,30.12,NE,45,0.0,0.0,98,0.00,,,0.00,WUHU21623XXSP,2013-01-05 15:11:00,
2013-01-05 07:16:00,37.4,36.9,30.12,ENE,67,0.0,0.0,98,0.00,,,0.00,WUHU21623XXSP,2013-01-05 15:16:00,
2013-01-05 07:21:00,37.4,36.9,30.12,NE,45,0.0,0.0,98,0.00,,,0.00,WUHU21623XXSP,2013-01-05 15:21:00,
2013-01-05 07:26:00,37.4,36.9,30.12,NE,45,0.0,0.0,98,0.00,,,0.00,WUHU21623XXSP,2013-01-05 15:26:00,
2013-01-05 07:31:00,37.6,37.0,30.12,West,270,0.0,0.0,98,0.00,,,0.00,WUHU21623XXSP,2013-01-05 15:31:00,
2013-01-05 07:36:00,37.4,36.9,30.13,West,270,0.0,0.0,98,0.00,,,0.00,WUHU21623XXSP,2013-01-05 15:36:00,
2013-01-05 07:41:00,37.6,36.9,30.14,West,270,0.0,0.0,98,0.00,,,0.00,WUHU21623XXSP,2013-01-05 15:41:00,
2013-01-05 07:46:00,37.6,36.9,30.14,WNW,292,0.0,0.0,98,0.00,,,0.00,WUHU21623XXSP,2013-01-05 15:46:00,
2013-01-05 07:51:00,37.6,37.0,30.14,WNW,292,0.0,0.0,98,0.00,,,0.00,WUHU21623XXSP,2013-01-05 15:51:00,
2013-01-05 07:56:00,37.6,37.0,30.14,WNW,292,0.0,0.0,98,0.00,,,0.00,WUHU21623XXSP,2013-01-05 15:56:00,
2013-01-05 08:01:00,37.6,37.0,30.14,WNW,292,0.0,0.0,98,0.00,,,0.00,WUHU21623XXSP,2013-01-05 16:01:00,
2013-01-05 08:06:00,37.6,37.0,30.14,WNW,292,0.0,0.0,98,0.00,,,0.00,WUHU21623XXSP,2013-01-05 16:06:00,
2013-01-05 08:11:00,37.8,37.0,30.15,WNW,292,0.0,0.0,98,0.00,,,0.00,WUHU21623XXSP,2013-01-05 16:11:00,
2013-01-05 08:16:00,37.6,37.0,30.15,WNW,292,0.0,0.0,98,0.00,,,0.00,WUHU21623XXSP,2013-01-05 16:16:00,
2013-01-05 08:21:00,37.8,37.2,30.15,WNW,292,0.0,0.0,98,0.00,,,0.00,WUHU21623XXSP,2013-01-05 16:21:00,
2013-01-05 08:26:00,37.6,37.0,30.15,WNW,292,0.0,0.0,98,0.00,,,0.00,WUHU21623XXSP,2013-01-05 16:26:00,
2013-01-05 08:31:00,37.6,37.0,30.14,WNW,292,0.0,0.0,98,0.00,,,0.00,WUHU21623XXSP,2013-01-05 16:31:00,
2013-01-05 08:36:00,37.8,37.2,30.15,North,0,0.0,0.0,98,0.00,,,0.00,WUHU21623XXSP,2013-01-05 16:36:00,
2013-01-05 08:41:00,37.8,37.0,30.15,NE,45,0.0,0.0,98,0.00,,,0.00,WUHU21623XXSP,2013-01-05 16:41:00,
2013-01-05 08:46:00,37.6,37.0,30.15,NE,45,0.0,0.0,98,0.00,,,0.00,WUHU21623XXSP,2013-01-05 16:46:00,
2013-01-05 08:51:00,37.8,37.2,30.14,NE,45,0.0,0.0,98,0.00,,,0.00,WUHU21623XXSP,2013-01-05 16:51:00,
2013-01-05 08:56:00,37.8,37.2,30.15,NE,45,0.0,0.0,98,0.00,,,0.00,WUHU21623XXSP,2013-01-05 16:56:00,
2013-01-05 09:01:00,37.8,37.2,30.14,NE,45,0.0,0.0,98,0.00,,,0.00,WUHU21623XXSP,2013-01-05 17:01:00,
2013-01-05 09:06:00,37.9,37.4,30.14,NE,45,0.0,0.0,98,0.00,,,0.00,WUHU21623XXSP,2013-01-05 17:06:00,
2013-01-05 09:11:00,37.8,37.2,30.15,NE,45,0.0,0.0,98,0.00,,,0.00,WUHU21623XXSP,2013-01-05 17:11:00,
2013-01-05 09:16:00,37.9,37.4,30.15,NE,45,0.0,0.0,98,0.00,,,0.00,WUHU21623XXSP,2013-01-05 17:16:00,
2013-01-05 09:21:00,37.9,37.4,30.15,NE,45,0.0,0.0,98,0.00,,,0.00,WUHU21623XXSP,2013-01-05 17:21:00,
2013-01-05 09:26:00,38.1,37.6,30.15,NE,45,0.0,0.0,98,0.00,,,0.00,WUHU21623XXSP,2013-01-05 17:26:00,
2013-01-05 09:31:00,38.1,37.6,30.14,NNE,22,0.0,0.0,98,0.00,,,0.00,WUHU21623XXSP,2013-01-05 17:31:00,
2013-01-05 09:36:00,38.3,37.8,30.15,NNE,22,0.0,0.0,98,0.00,,,0.00,WUHU21623XXSP,2013-01-05 17:36:00,
2013-01-05 09:41:00,38.3,37.8,30.14,NNE,22,0.0,0.0,98,0.00,,,0.00,WUHU21623XXSP,2013-01-05 17:41:00,
2013-01-05 09:46:00,38.3,37.8,30.14,NNE,22,0.0,0.0,98,0.00,,,0.00,WUHU21623XXSP,2013-01-05 17:46:00,
2013-01-05 09:51:00,38.5,37.9,30.14,NNE,22,0.0,0.0,98,0.00,,,0.00,WUHU21623XXSP,2013-01-05 17:51:00,
2013-01-05 09:56:00,38.5,37.9,30.14,NE,45,0.0,0.0,98,0.00,,,0.00,WUHU21623XXSP,2013-01-05 17:56:00,
2013-01-05 10:01:00,38.7,37.9,30.15,NE,45,0.0,0.0,98,0.00,,,0.00,WUHU21623XXSP,2013-01-05 18:01:00,
2013-01-05 10:06:00,38.5,37.9,30.15,NE,45,0.0,0.0,98,0.00,,,0.00,WUHU21623XXSP,2013-01-05 18:06:00,
2013-01-05 10:11:00,38.7,38.1,30.15,NNE,22,0.0,0.0,98,0.00,,,0.00,WUHU21623XXSP,2013-01-05 18:11:00,
2013-01-05 10:16:00,38.5,37.9,30.15,NE,45,0.0,0.0,98,0.00,,,0.00,WUHU21623XXSP,2013-01-05 18:16:00,
2013-01-05 10:21:00,38.5,37.9,30.15,NE,45,0.0,0.0,98,0.00,,,0.00,WUHU21623XXSP,2013-01-05 18:21:00,
2013-01-05 10:26:00,38.7,38.1,30.15,ESE,112,0.0,0.0,98,0.00,,,0.00,WUHU21623XXSP,2013-01-05 18:26:00,
2013-01-05 10:31:00,38.8,38.3,30.15,ESE,112,0.0,0.0,98,0.00,,,0.00,WUHU21623XXSP,2013-01-05 18:31:00,
2013-01-05 10:36:00,38.8,38.3,30.14,ESE,112,0.0,0.0,98,0.00,,,0.00,WUHU21623XXSP,2013-01-05 18:36:00,
2013-01-05 10:41:00,39.0,38.5,30.14,ESE,112,0.0,0.0,98,0.00,,,0.00,WUHU21623XXSP,2013-01-05 18:41:00,
2013-01-05 10:46:00,39.0,38.5,30.14,ESE,112,0.0,0.0,98,0.00,,,0.00,WUHU21623XXSP,2013-01-05 18:46:00,
2013-01-05 10:51:00,39.4,38.9,30.14,ESE,112,0.0,0.0,99,0.00,,,0.00,WUHU21623XXSP,2013-01-05 18:51:00,
2013-01-05 10:56:00,39.4,39.1,30.14,ESE,112,0.0,0.0,99,0.00,,,0.00,WUHU21623XXSP,2013-01-05 18:56:00,
2013-01-05 11:01:00,39.6,39.3,30.14,ESE,112,0.0,0.0,99,0.00,,,0.00,WUHU21623XXSP,2013-01-05 19:01:00,
2013-01-05 11:06:00,39.7,39.5,30.14,ESE,112,0.0,0.0,99,0.00,,,0.00,WUHU21623XXSP,2013-01-05 19:06:00,
2013-01-05 11:11:00,39.7,39.5,30.14,ESE,112,0.0,0.0,99,0.00,,,0.00,WUHU21623XXSP,2013-01-05 19:11:00,
2013-01-05 11:16:00,39.7,39.5,30.14,ESE,112,0.0,0.0,99,0.00,,,0.00,WUHU21623XXSP,2013-01-05 19:16:00,
2013-01-05 11:21:00,39.9,39.6,30.13,ESE,112,0.0,0.0,99,0.00,,,0.00,WUHU21623XXSP,2013-01-05 19:21:00,
2013-01-05 11:26:00,39.9,39.6,30.13,NNE,22,0.0,0.0,99,0.00,,,0.00,WUHU21623XXSP,2013-01-05 19:26:00,
2013-01-05 11:31:00,39.9,39.6,30.13,NNE,22,0.0,0.0,99,0.00,,,0.00,WUHU21623XXSP,2013-01-05 19:31:00,
2013-01-05 11:36:00,40.1,39.8,30.13,NNE,22,0.0,0.0,99,0.00,,,0.00,WUHU21623XXSP,2013-01-05 19:36:00,
2013-01-05 11:41:00,40.1,39.8,30.13,NNE,22,0.0,0.0,99,0.00,,,0.00,WUHU21623XXSP,2013-01-05 19:41:00,
2013-01-05 11:46:00,40.1,39.8,30.13,NNE,22,0.0,0.0,99,0.00,,,0.00,WUHU21623XXSP,2013-01-05 19:46:00,
2013-01-05 11:51:00,40.3,40.0,30.13,NNE,22,0.0,0.0,99,0.00,,,0.00,WUHU21623XXSP,2013-01-05 19:51:00,
2013-01-05 11:56:00,40.3,40.0,30.13,NNE,22,0.0,0.0,99,0.00,,,0.00,WUHU21623XXSP,2013-01-05 19:56:00,
2013-01-05 12:01:00,40.5,40.2,30.13,NNE,22,0.0,0.0,99,0.00,,,0.00,WUHU21623XXSP,2013-01-05 20:01:00,
2013-01-05 12:06:00,40.6,40.4,30.13,NNE,22,0.0,0.0,99,0.00,,,0.00,WUHU21623XXSP,2013-01-05 20:06:00,
2013-01-05 12:11:00,40.8,40.4,30.12,NNE,22,0.0,0.0,99,0.00,,,0.00,WUHU21623XXSP,2013-01-05 20:11:00,
2013-01-05 12:16:00,40.6,40.4,30.12,NNE,22,0.0,0.0,99,0.00,,,0.00,WUHU21623XXSP,2013-01-05 20:16:00,
2013-01-05 12:21:00,40.8,40.5,30.12,NNE,22,0.0,0.0,99,0.00,,,0.00,WUHU21623XXSP,2013-01-05 20:21:00,
2013-01-05 12:26:00,40.8,40.5,30.12,NE,45,0.0,0.0,99,0.00,,,0.00,WUHU21623XXSP,2013-01-05 20:26:00,
2013-01-05 12:31:00,40.8,40.5,30.12,NE,45,0.0,0.0,99,0.00,,,0.00,WUHU21623XXSP,2013-01-05 20:31:00,
2013-01-05 12:36:00,40.8,40.5,30.12,NE,45,0.0,0.0,99,0.00,,,0.00,WUHU21623XXSP,2013-01-05 20:36:00,
2013-01-05 12:41:00,41.0,40.5,30.11,NE,45,0.0,0.0,99,0.00,,,0.00,WUHU21623XXSP,2013-01-05 20:41:00,
2013-01-05 12:46:00,41.0,40.7,30.11,NE,45,0.0,0.0,99,0.00,,,0.00,WUHU21623XXSP,2013-01-05 20:46:00,
2013-01-05 12:51:00,41.0,40.7,30.11,ENE,67,0.0,0.0,99,0.00,,,0.00,WUHU21623XXSP,2013-01-05 20:51:00,
2013-01-05 12:56:00,41.0,40.7,30.11,ENE,67,0.0,0.0,99,0.00,,,0.00,WUHU21623XXSP,2013-01-05 20:56:00,
2013-01-05 13:01:00,41.2,40.9,30.11,ENE,67,0.0,0.0,99,0.00,,,0.00,WUHU21623XXSP,2013-01-05 21:01:00,
2013-01-05 13:06:00,41.2,40.9,30.11,ENE,67,0.0,0.0,99,0.00,,,0.00,WUHU21623XXSP,2013-01-05 21:06:00,
2013-01-05 13:11:00,41.2,40.9,30.11,ENE,67,0.0,0.0,99,0.00,,,0.00,WUHU21623XXSP,2013-01-05 21:11:00,
2013-01-05 13:16:00,41.2,40.9,30.11,ENE,67,0.0,0.0,99,0.00,,,0.00,WUHU21623XXSP,2013-01-05 21:16:00,
2013-01-05 13:21:00,41.4,41.1,30.11,ENE,67,0.0,0.0,99,0.00,,,0.00,WUHU21623XXSP,2013-01-05 21:21:00,
2013-01-05 13:26:00,41.5,41.1,30.11,ENE,67,0.0,0.0,99,0.00,,,0.00,WUHU21623XXSP,2013-01-05 21:26:00,
2013-01-05 13:31:00,41.5,41.3,30.11,ENE,67,0.0,0.0,99,0.00,,,0.00,WUHU21623XXSP,2013-01-05 21:31:00,
2013-01-05 13:36:00,41.5,41.3,30.11,ENE,67,0.0,0.0,99,0.00,,,0.00,WUHU21623XXSP,2013-01-05 21:36:00,
2013-01-05 13:41:00,41.5,41.3,30.11,ENE,67,0.0,0.0,99,0.00,,,0.00,WUHU21623XXSP,2013-01-05 21:41:00,
2013-01-05 13:46:00,41.5,41.3,30.11,ENE,67,0.0,0.0,99,0.00,,,0.00,WUHU21623XXSP,2013-01-05 21:46:00,
2013-01-05 13:51:00,41.5,41.3,30.10,ENE,67,0.0,0.0,99,0.00,,,0.00,WUHU21623XXSP,2013-01-05 21:51:00,
2013-01-05 13:56:00,41.5,41.0,30.10,ENE,67,0.0,0.0,98,0.00,,,0.00,WUHU21623XXSP,2013-01-05 21:56:00,
2013-01-05 14:01:00,41.5,41.0,30.09,NE,45,0.0,0.0,98,0.00,,,0.00,WUHU21623XXSP,2013-01-05 22:01:00,
2013-01-05 14:06:00,41.5,41.0,30.10,NE,45,0.0,0.0,98,0.00,,,0.00,WUHU21623XXSP,2013-01-05 22:06:00,
2013-01-05 14:11:00,41.4,40.8,30.10,NE,45,0.0,0.0,98,0.00,,,0.00,WUHU21623XXSP,2013-01-05 22:11:00,
2013-01-05 14:16:00,41.5,41.0,30.10,NE,45,0.0,0.0,98,0.00,,,0.00,WUHU21623XXSP,2013-01-05 22:16:00,
2013-01-05 14:21:00,41.5,41.0,30.10,NE,45,0.0,0.0,98,0.00,,,0.00,WUHU21623XXSP,2013-01-05 22:21:00,
2013-01-05 14:26:00,41.4,40.8,30.10,NE,45,0.0,0.0,98,0.00,,,0.00,WUHU21623XXSP,2013-01-05 22:26:00,
2013-01-05 14:31:00,41.4,40.8,30.09,NE,45,0.0,0.0,98,0.00,,,0.00,WUHU21623XXSP,2013-01-05 22:31:00,
2013-01-05 14:36:00,41.4,40.8,30.09,NE,45,0.0,0.0,98,0.00,,,0.00,WUHU21623XXSP,2013-01-05 22:36:00,
2013-01-05 14:41:00,41.4,40.8,30.09,NE,45,0.0,0.0,98,0.00,,,0.00,WUHU21623XXSP,2013-01-05 22:41:00,
2013-01-05 14:46:00,41.4,40.8,30.09,ENE,67,0.0,0.0,98,0.00,,,0.00,WUHU21623XXSP,2013-01-05 22:46:00,
2013-01-05 14:51:00,41.4,40.8,30.09,ENE,67,0.0,0.0,98,0.00,,,0.00,WUHU21623XXSP,2013-01-05 22:51:00,
2013-01-05 14:56:00,41.4,40.8,30.09,ENE,67,0.0,0.0,98,0.00,,,0.00,WUHU21623XXSP,2013-01-05 22:56:00,
2013-01-05 15:01:00,41.5,41.0,30.10,ENE,67,0.0,0.0,98,0.00,,,0.00,WUHU21623XXSP,2013-01-05 23:01:00,
2013-01-05 15:06:00,41.5,41.0,30.10,ENE,67,0.0,0.0,98,0.00,,,0.00,WUHU21623XXSP,2013-01-05 23:06:00,
2013-01-05 15:11:00,41.5,41.0,30.09,ENE,67,0.0,0.0,98,0.00,,,0.00,WUHU21623XXSP,2013-01-05 23:11:00,
2013-01-05 15:16:00,41.4,40.8,30.09,ENE,67,0.0,0.0,98,0.00,,,0.00,WUHU21623XXSP,2013-01-05 23:16:00,
2013-01-05 15:21:00,41.4,40.8,30.09,ENE,67,0.0,0.0,98,0.00,,,0.00,WUHU21623XXSP,2013-01-05 23:21:00,
2013-01-05 15:26:00,41.4,40.8,30.08,ENE,67,0.0,0.0,98,0.00,,,0.00,WUHU21623XXSP,2013-01-05 23:26:00,
2013-01-05 15:31:00,41.2,40.6,30.08,ENE,67,0.0,0.0,98,0.00,,,0.00,WUHU21623XXSP,2013-01-05 23:31:00,
2013-01-05 15:36:00,41.2,40.6,30.08,ENE,67,0.0,0.0,98,0.00,,,0.00,WUHU21623XXSP,2013-01-05 23:36:00,
2013-01-05 15:41:00,41.2,40.6,30.08,ENE,67,0.0,0.0,98,0.00,,,0.00,WUHU21623XXSP,2013-01-05 23:41:00,
2013-01-05 15:46:00,41.0,40.5,30.08,ENE,67,0.0,0.0,98,0.00,,,0.00,WUHU21623XXSP,2013-01-05 23:46:00,
2013-01-05 15:51:00,40.8,40.3,30.08,ENE,67,0.0,0.0,98,0.00,,,0.00,WUHU21623XXSP,2013-01-05 23:51:00,
2013-01-05 15:56:00,40.8,40.3,30.08,ENE,67,0.0,0.0,98,0.00,,,0.00,WUHU21623XXSP,2013-01-05 23:56:00,
2013-01-05 16:01:00,40.8,40.3,30.08,ENE,67,0.0,0.0,98,0.00,,,0.00,WUHU21623XXSP,2013-01-06 00:01:00,
2013-01-05 16:06:00,40.8,40.3,30.07,ENE,67,0.0,0.0,98,0.00,,,0.00,WUHU21623XXSP,2013-01-06 00:06:00,
2013-01-05 16:11:00,40.6,40.1,30.07,ENE,67,0.0,0.0,98,0.00,,,0.00,WUHU21623XXSP,2013-01-06 00:11:00,
2013-01-05 16:16:00,40.6,40.1,30.07,ENE,67,0.0,0.0,98,0.00,,,0.00,WUHU21623XXSP,2013-01-06 00:16:00,
2013-01-05 16:21:00,40.6,40.1,30.07,ENE,67,0.0,0.0,98,0.00,,,0.00,WUHU21623XXSP,2013-01-06 00:21:00,
2013-01-05 16:26:00,40.5,39.9,30.07,ENE,67,0.0,0.0,98,0.00,,,0.00,WUHU21623XXSP,2013-01-06 00:26:00,
2013-01-05 16:31:00,40.5,39.9,30.07,East,90,0.0,0.0,98,0.00,,,0.00,WUHU21623XXSP,2013-01-06 00:31:00,
2013-01-05 16:36:00,40.3,39.7,30.07,East,90,0.0,0.0,98,0.00,,,0.00,WUHU21623XXSP,2013-01-06 00:36:00,
2013-01-05 16:41:00,40.3,39.7,30.07,East,90,0.0,0.0,98,0.00,,,0.00,WUHU21623XXSP,2013-01-06 00:41:00,
2013-01-05 16:46:00,40.3,39.7,30.07,East,90,0.0,0.0,98,0.00,,,0.00,WUHU21623XXSP,2013-01-06 00:46:00,
2013-01-05 16:51:00,40.1,39.6,30.07,East,90,0.0,0.0,98,0.00,,,0.00,WUHU21623XXSP,2013-01-06 00:51:00,
2013-01-05 16:56:00,40.1,39.6,30.07,East,90,0.0,0.0,98,0.00,,,0.00,WUHU21623XXSP,2013-01-06 00:56:00,
2013-01-05 17:01:00,40.1,39.6,30.07,East,90,0.0,0.0,98,0.00,,,0.00,WUHU21623XXSP,2013-01-06 01:01:00,
2013-01-05 17:06:00,39.9,39.4,30.07,East,90,0.0,0.0,98,0.00,,,0.00,WUHU21623XXSP,2013-01-06 01:06:00,
2013-01-05 17:11:00,39.9,39.4,30.07,East,90,0.0,0.0,98,0.00,,,0.00,WUHU21623XXSP,2013-01-06 01:11:00,
2013-01-05 17:16:00,39.9,39.4,30.07,East,90,0.0,0.0,98,0.00,,,0.00,WUHU21623XXSP,2013-01-06 01:16:00,
2013-01-05 17:21:00,39.9,39.4,30.06,East,90,0.0,0.0,98,0.00,,,0.00,WUHU21623XXSP,2013-01-06 01:21:00,
2013-01-05 17:26:00,39.9,39.4,30.06,East,90,0.0,0.0,98,0.00,,,0.00,WUHU21623XXSP,2013-01-06 01:26:00,
2013-01-05 17:31:00,39.7,39.2,30.06,SE,135,0.0,0.0,98,0.00,,,0.00,WUHU21623XXSP,2013-01-06 01:31:00,
2013-01-05 17:36:00,39.7,39.2,30.06,ESE,112,0.0,0.0,98,0.00,,,0.00,WUHU21623XXSP,2013-01-06 01:36:00,
2013-01-05 17:41:00,39.7,39.2,30.06,ESE,112,0.0,0.0,98,0.00,,,0.00,WUHU21623XXSP,2013-01-06 01:41:00,
2013-01-05 17:46:00,39.7,39.2,30.06,ESE,112,0.0,0.0,98,0.00,,,0.00,WUHU21623XXSP,2013-01-06 01:46:00,
2013-01-05 17:51:00,39.7,39.2,30.06,ESE,112,0.0,0.0,98,0.00,,,0.00,WUHU21623XXSP,2013-01-06 01:51:00,
2013-01-05 17:56:00,39.7,39.2,30.06,ESE,112,0.0,0.0,98,0.00,,,0.00,WUHU21623XXSP,2013-01-06 01:56:00,
2013-01-05 18:01:00,39.7,39.2,30.06,ESE,112,0.0,0.0,98,0.00,,,0.00,WUHU21623XXSP,2013-01-06 02:01:00,
2013-01-05 18:06:00,39.7,39.2,30.05,ESE,112,0.0,0.0,98,0.00,,,0.00,WUHU21623XXSP,2013-01-06 02:06:00,
2013-01-05 18:11:00,39.6,39.0,30.06,SE,135,0.0,0.0,98,0.00,,,0.00,WUHU21623XXSP,2013-01-06 02:11:00,
2013-01-05 18:16:00,39.6,39.0,30.06,SE,135,0.0,0.0,98,0.00,,,0.00,WUHU21623XXSP,2013-01-06 02:16:00,
2013-01-05 18:21:00,39.6,39.0,30.06,SE,135,0.0,0.0,98,0.00,,,0.00,WUHU21623XXSP,2013-01-06 02:21:00,
2013-01-05 18:26:00,39.6,39.0,30.06,SE,135,0.0,0.0,98,0.00,,,0.00,WUHU21623XXSP,2013-01-06 02:26:00,
2013-01-05 18:31:00,39.6,39.0,30.06,SE,135,0.0,0.0,98,0.00,,,0.00,WUHU21623XXSP,2013-01-06 02:31:00,
2013-01-05 18:36:00,39.4,38.8,30.07,SE,135,0.0,0.0,98,0.00,,,0.00,WUHU21623XXSP,2013-01-06 02:36:00,
2013-01-05 18:41:00,39.4,38.8,30.07,SE,135,0.0,0.0,98,0.00,,,0.00,WUHU21623XXSP,2013-01-06 02:41:00,
2013-01-05 18:46:00,39.4,38.8,30.06,SE,135,0.0,0.0,98,0.00,,,0.00,WUHU21623XXSP,2013-01-06 02:46:00,
2013-01-05 18:51:00,39.4,38.8,30.06,SE,135,0.0,0.0,98,0.00,,,0.00,WUHU21623XXSP,2013-01-06 02:51:00,
2013-01-05 18:56:00,39.4,38.8,30.06,SE,135,0.0,0.0,98,0.00,,,0.00,WUHU21623XXSP,2013-01-06 02:56:00,
2013-01-05 19:01:00,39.4,38.8,30.06,SE,135,0.0,0.0,98,0.00,,,0.00,WUHU21623XXSP,2013-01-06 03:01:00,
2013-01-05 19:06:00,39.4,38.8,30.07,SE,135,0.0,0.0,98,0.00,,,0.00,WUHU21623XXSP,2013-01-06 03:06:00,
2013-01-05 19:11:00,39.4,38.8,30.07,SE,135,0.0,0.0,98,0.00,,,0.00,WUHU21623XXSP,2013-01-06 03:11:00,
2013-01-05 19:16:00,39.4,38.8,30.07,SE,135,0.0,0.0,98,0.00,,,0.00,WUHU21623XXSP,2013-01-06 03:16:00,
2013-01-05 19:21:00,39.4,38.8,30.07,SE,135,0.0,0.0,98,0.00,,,0.00,WUHU21623XXSP,2013-01-06 03:21:00,
2013-01-05 19:26:00,39.4,38.8,30.07,SE,135,0.0,0.0,98,0.00,,,0.00,WUHU21623XXSP,2013-01-06 03:26:00,
2013-01-05 19:31:00,39.4,38.8,30.07,SE,135,0.0,0.0,98,0.00,,,0.00,WUHU21623XXSP,2013-01-06 03:31:00,
2013-01-05 19:36:00,39.4,38.8,30.07,SE,135,0.0,0.0,98,0.00,,,0.00,WUHU21623XXSP,2013-01-06 03:36:00,
2013-01-05 19:41:00,39.4,38.8,30.07,SE,135,0.0,0.0,98,0.00,,,0.00,WUHU21623XXSP,2013-01-06 03:41:00,
2013-01-05 19:46:00,39.4,38.8,30.07,SE,135,0.0,0.0,98,0.00,,,0.00,WUHU21623XXSP,2013-01-06 03:46:00,
2013-01-05 19:51:00,39.2,38.7,30.06,NNW,337,0.0,0.0,98,0.00,,,0.00,WUHU21623XXSP,2013-01-06 03:51:00,
2013-01-05 19:56:00,39.0,38.5,30.06,NNW,337,0.0,0.0,98,0.00,,,0.00,WUHU21623XXSP,2013-01-06 03:56:00,
2013-01-05 20:01:00,39.0,38.5,30.06,SSE,157,0.0,0.0,98,0.00,,,0.00,WUHU21623XXSP,2013-01-06 04:01:00,
2013-01-05 20:06:00,39.0,38.5,30.06,NE,45,0.0,0.0,98,0.00,,,0.00,WUHU21623XXSP,2013-01-06 04:06:00,
2013-01-05 20:11:00,39.0,38.5,30.06,North,0,0.0,0.0,98,0.00,,,0.00,WUHU21623XXSP,2013-01-06 04:11:00,
2013-01-05 20:16:00,39.0,38.5,30.06,NE,45,0.0,0.0,98,0.00,,,0.00,WUHU21623XXSP,2013-01-06 04:16:00,
2013-01-05 20:21:00,39.0,38.5,30.06,North,0,0.0,0.0,98,0.00,,,0.00,WUHU21623XXSP,2013-01-06 04:21:00,
2013-01-05 20:26:00,39.0,38.5,30.06,NNW,337,0.0,0.0,98,0.00,,,0.00,WUHU21623XXSP,2013-01-06 04:26:00,
2013-01-05 20:31:00,39.0,38.5,30.05,NW,315,0.0,0.0,98,0.00,,,0.00,WUHU21623XXSP,2013-01-06 04:31:00,
2013-01-05 20:36:00,39.2,38.5,30.05,NW,315,0.0,0.0,98,0.00,,,0.00,WUHU21623XXSP,2013-01-06 04:36:00,
2013-01-05 20:41:00,39.0,38.5,30.06,NNW,337,0.0,0.0,98,0.00,,,0.00,WUHU21623XXSP,2013-01-06 04:41:00,
2013-01-05 20:46:00,39.0,38.5,30.06,NNW,337,0.0,0.0,98,0.00,,,0.00,WUHU21623XXSP,2013-01-06 04:46:00,
2013-01-05 20:51:00,39.0,38.5,30.06,NNW,337,0.0,0.0,98,0.00,,,0.00,WUHU21623XXSP,2013-01-06 04:51:00,
2013-01-05 20:56:00,39.0,38.5,30.07,West,270,0.0,0.0,98,0.00,,,0.00,WUHU21623XXSP,2013-01-06 04:56:00,
2013-01-05 21:00:00,39.0,38.5,30.07,West,270,0.0,0.0,98,0.00,,,0.00,WUHU21623XXSP,2013-01-06 05:00:00,
2013-01-05 21:03:00,39.0,38.5,30.07,West,270,0.0,0.0,98,0.00,,,0.00,WUHU21623XXSP,2013-01-06 05:03:00,
2013-01-05 21:04:00,39.0,38.5,30.07,West,270,0.0,0.0,98,0.00,,,0.00,WUHU21623XXSP,2013-01-06 05:04:00,
2013-01-05 21:07:00,39.0,38.5,30.07,West,270,0.0,0.0,98,0.00,,,0.00,WUHU21623XXSP,2013-01-06 05:07:00,
2013-01-05 21:13:00,39.0,38.5,30.07,West,270,0.0,0.0,98,0.00,,,0.00,WUHU21623XXSP,2013-01-06 05:13:00,
2013-01-05 21:17:00,39.0,38.5,30.07,West,270,0.0,0.0,98,0.00,,,0.00,WUHU21623XXSP,2013-01-06 05:17:00,
2013-01-05 21:22:00,39.0,38.2,30.07,West,270,0.0,0.0,97,0.00,,,0.00,WUHU21623XXSP,2013-01-06 05:22:00,
2013-01-05 21:28:00,39.0,38.2,30.06,WSW,247,0.0,0.0,97,0.00,,,0.00,WUHU21623XXSP,2013-01-06 05:28:00,
2013-01-05 21:33:00,39.0,38.2,30.07,WSW,247,0.0,0.0,97,0.00,,,0.00,WUHU21623XXSP,2013-01-06 05:33:00,
2013-01-05 21:38:00,38.8,38.3,30.07,WSW,247,0.0,0.0,98,0.00,,,0.00,WUHU21623XXSP,2013-01-06 05:38:00,
2013-01-05 21:43:00,38.8,38.3,30.07,WSW,247,0.0,0.0,98,0.00,,,0.00,WUHU21623XXSP,2013-01-06 05:43:00,
2013-01-05 21:48:00,38.8,38.3,30.07,WSW,247,0.0,0.0,98,0.00,,,0.00,WUHU21623XXSP,2013-01-06 05:48:00,
2013-01-05 21:52:00,38.8,38.3,30.07,WSW,247,0.0,0.0,98,0.00,,,0.00,WUHU21623XXSP,2013-01-06 05:52:00,
2013-01-05 21:58:00,38.8,38.3,30.08,WSW,247,0.0,0.0,98,0.00,,,0.00,WUHU21623XXSP,2013-01-06 05:58:00,
2013-01-05 22:02:00,38.8,38.3,30.08,WSW,247,0.0,0.0,98,0.00,,,0.00,WUHU21623XXSP,2013-01-06 06:02:00,
2013-01-05 22:08:00,38.8,38.3,30.08,WSW,247,0.0,0.0,98,0.00,,,0.00,WUHU21623XXSP,2013-01-06 06:08:00,
2013-01-05 22:12:00,38.7,38.1,30.08,WSW,247,0.0,0.0,98,0.00,,,0.00,WUHU21623XXSP,2013-01-06 06:12:00,
2013-01-05 22:17:00,38.7,38.1,30.08,WSW,247,0.0,0.0,98,0.00,,,0.00,WUHU21623XXSP,2013-01-06 06:17:00,
2013-01-05 22:23:00,38.5,37.9,30.09,WSW,247,0.0,0.0,98,0.00,,,0.00,WUHU21623XXSP,2013-01-06 06:23:00,
2013-01-05 22:27:00,38.5,37.9,30.08,WSW,247,0.0,0.0,98,0.00,,,0.00,WUHU21623XXSP,2013-01-06 06:27:00,
2013-01-05 22:32:00,38.5,37.9,30.08,WSW,247,0.0,0.0,98,0.00,,,0.00,WUHU21623XXSP,2013-01-06 06:32:00,
2013-01-05 22:37:00,38.5,37.9,30.08,North,0,0.0,0.0,98,0.00,,,0.00,WUHU21623XXSP,2013-01-06 06:37:00,
2013-01-05 22:42:00,38.5,37.9,30.08,North,0,0.0,0.0,98,0.00,,,0.00,WUHU21623XXSP,2013-01-06 06:42:00,
2013-01-05 22:48:00,38.5,37.9,30.08,North,0,0.0,0.0,98,0.00,,,0.00,WUHU21623XXSP,2013-01-06 06:48:00,
2013-01-05 22:53:00,38.3,37.8,30.09,North,0,0.0,0.0,98,0.00,,,0.00,WUHU21623XXSP,2013-01-06 06:53:00,
2013-01-05 22:58:00,38.3,37.8,30.09,North,0,0.0,0.0,98,0.00,,,0.00,WUHU21623XXSP,2013-01-06 06:58:00,
2013-01-05 23:03:00,38.3,37.8,30.09,North,0,0.0,0.0,98,0.00,,,0.00,WUHU21623XXSP,2013-01-06 07:03:00,
2013-01-05 23:08:00,38.3,37.8,30.09,NNE,22,0.0,0.0,98,0.00,,,0.00,WUHU21623XXSP,2013-01-06 07:08:00,
2013-01-05 23:13:00,38.3,37.8,30.08,NNE,22,0.0,0.0,98,0.00,,,0.00,WUHU21623XXSP,2013-01-06 07:13:00,
2013-01-05 23:17:00,38.3,37.8,30.08,NNE,22,0.0,0.0,98,0.00,,,0.00,WUHU21623XXSP,2013-01-06 07:17:00,
2013-01-05 23:23:00,38.3,37.8,30.09,SSW,202,0.0,0.0,98,0.00,,,0.00,WUHU21623XXSP,2013-01-06 07:23:00,
2013-01-05 23:28:00,38.3,37.8,30.08,SSW,202,0.0,0.0,98,0.00,,,0.00,WUHU21623XXSP,2013-01-06 07:28:00,
2013-01-05 23:33:00,38.1,37.6,30.08,SSW,202,0.0,0.0,98,0.00,,,0.00,WUHU21623XXSP,2013-01-06 07:33:00,
2013-01-05 23:38:00,38.1,37.6,30.08,NE,45,0.0,0.0,98,0.00,,,0.00,WUHU21623XXSP,2013-01-06 07:38:00,
2013-01-05 23:42:00,38.3,37.8,30.08,NE,45,0.0,0.0,98,0.00,,,0.00,WUHU21623XXSP,2013-01-06 07:42:00,
2013-01-05 23:47:00,38.3,37.8,30.08,NNE,22,0.0,0.0,98,0.00,,,0.00,WUHU21623XXSP,2013-01-06 07:47:00,
2013-01-05 23:52:00,38.3,37.8,30.09,NNE,22,0.0,0.0,98,0.00,,,0.00,WUHU21623XXSP,2013-01-06 07:52:00,
2013-01-05 23:57:00,38.3,37.8,30.09,SSE,157,0.0,0.0,98,0.00,,,0.00,WUHU21623XXSP,2013-01-06 07:57:00,